createdAt,value
2019-01-10T00:00:23.210Z,4.87
2019-01-10T00:02:50.511Z,10.88
2019-01-10T00:05:17.722Z,7.00
2019-01-10T00:07:45.019Z,19.10
2019-01-10T00:10:14.055Z,5.17
2019-01-10T00:12:41.499Z,9.15
2019-01-10T00:15:10.301Z,6.95
2019-01-10T00:17:37.514Z,12.30
2019-01-10T00:20:06.207Z,10.05
2019-01-10T00:22:33.416Z,9.88
2019-01-10T00:25:00.658Z,7.42
2019-01-10T00:27:27.857Z,8.93
2019-01-10T00:29:55.075Z,8.15
2019-01-10T00:32:22.287Z,8.45
2019-01-10T00:34:49.510Z,15.23
2019-01-10T00:37:16.724Z,4.35
2019-01-10T00:39:43.942Z,8.68
2019-01-10T00:42:11.168Z,10.28
2019-01-10T00:44:38.390Z,7.90
2019-01-10T00:47:05.598Z,4.92
2019-01-10T00:49:32.843Z,8.83
2019-01-10T00:52:00.058Z,10.38
2019-01-10T00:54:27.296Z,11.73
2019-01-10T00:56:54.503Z,7.33
2019-01-10T00:59:21.722Z,4.75
2019-01-10T01:01:48.931Z,6.87
2019-01-10T01:04:16.150Z,5.55
2019-01-10T01:06:43.357Z,5.90
2019-01-10T01:09:10.575Z,8.75
2019-01-10T01:11:37.782Z,12.05
2019-01-10T01:14:05.066Z,8.20
2019-01-10T01:16:32.295Z,8.23
2019-01-10T01:18:59.515Z,5.10
2019-01-10T01:21:26.727Z,5.85
2019-01-10T01:23:54.006Z,5.15
2019-01-10T01:26:21.219Z,5.97
2019-01-10T01:28:48.443Z,7.22
2019-01-10T01:31:15.663Z,11.95
2019-01-10T01:33:42.866Z,4.12
2019-01-10T01:36:10.087Z,5.08
2019-01-10T01:38:37.323Z,8.93
2019-01-10T01:41:04.527Z,6.15
2019-01-10T01:43:31.738Z,5.08
2019-01-10T01:45:58.962Z,4.62
2019-01-10T01:48:26.170Z,6.25
2019-01-10T01:50:53.390Z,5.90
2019-01-10T01:53:20.598Z,6.85
2019-01-10T01:55:47.822Z,5.37
2019-01-10T01:58:15.068Z,2.35
2019-01-10T02:00:42.294Z,7.22
2019-01-10T02:03:09.501Z,5.25
2019-01-10T02:05:37.526Z,4.90
2019-01-10T02:08:04.748Z,6.50
2019-01-10T02:10:31.958Z,6.10
2019-01-10T02:12:59.165Z,7.53
2019-01-10T02:15:26.451Z,4.50
2019-01-10T02:17:53.659Z,4.55
2019-01-10T02:20:20.878Z,9.08
2019-01-10T02:22:48.086Z,5.92
2019-01-10T02:25:16.274Z,6.12
2019-01-10T02:27:43.566Z,4.10
2019-01-10T02:30:12.322Z,3.12
2019-01-10T02:32:39.544Z,10.00
2019-01-10T02:35:07.429Z,7.22
2019-01-10T02:37:34.639Z,9.00
2019-01-10T02:40:01.858Z,5.80
2019-01-10T02:42:29.071Z,8.88
2019-01-10T02:44:56.291Z,3.92
2019-01-10T02:47:23.571Z,4.50
2019-01-10T02:49:50.802Z,8.70
2019-01-10T02:52:18.003Z,11.22
2019-01-10T02:54:45.230Z,10.82
2019-01-10T02:57:12.449Z,6.05
2019-01-10T02:59:39.655Z,7.58
2019-01-10T03:02:06.953Z,4.30
2019-01-10T03:04:34.159Z,6.80
2019-01-10T03:07:01.391Z,7.90
2019-01-10T03:09:28.599Z,6.37
2019-01-10T03:11:55.814Z,10.40
2019-01-10T03:14:23.028Z,11.08
2019-01-10T03:16:50.248Z,6.95
2019-01-10T03:19:17.458Z,5.15
2019-01-10T03:21:44.684Z,3.85
2019-01-10T03:24:11.896Z,7.55
2019-01-10T03:26:39.118Z,6.92
2019-01-10T03:29:06.327Z,8.68
2019-01-10T03:31:33.543Z,9.10
2019-01-10T03:34:00.746Z,6.45
2019-01-10T03:36:27.978Z,7.35
2019-01-10T03:38:55.186Z,6.72
2019-01-10T03:41:22.483Z,11.73
2019-01-10T03:43:49.696Z,11.25
2019-01-10T03:46:16.924Z,9.75
2019-01-10T03:48:44.119Z,7.37
2019-01-10T03:51:11.330Z,5.25
2019-01-10T03:53:38.549Z,6.83
2019-01-10T03:56:05.758Z,6.65
2019-01-10T03:58:32.975Z,7.95
2019-01-10T04:01:00.186Z,7.58
2019-01-10T04:03:27.403Z,11.18
2019-01-10T04:05:54.643Z,9.03
2019-01-10T04:08:21.855Z,12.65
2019-01-10T04:10:49.082Z,6.05
2019-01-10T04:13:16.299Z,10.23
2019-01-10T04:15:43.509Z,7.97
2019-01-10T04:18:10.722Z,9.88
2019-01-10T04:20:37.942Z,10.63
2019-01-10T04:23:05.157Z,7.58
2019-01-10T04:25:32.368Z,8.23
2019-01-10T04:27:59.617Z,6.42
2019-01-10T04:30:26.828Z,8.25
2019-01-10T04:32:54.065Z,9.48
2019-01-10T04:35:21.276Z,9.13
2019-01-10T04:37:48.490Z,6.53
2019-01-10T04:40:16.870Z,7.55
2019-01-10T04:42:44.085Z,6.92
2019-01-10T04:45:11.428Z,16.37
2019-01-10T04:47:38.659Z,8.98
2019-01-10T04:50:09.996Z,9.78
2019-01-10T04:52:37.215Z,13.65
2019-01-10T04:55:05.198Z,10.32
2019-01-10T04:57:32.414Z,8.68
2019-01-10T04:59:59.626Z,11.43
2019-01-10T05:02:26.851Z,10.95
2019-01-10T05:04:54.067Z,13.18
2019-01-10T05:07:21.291Z,10.90
2019-01-10T05:09:48.507Z,11.90
2019-01-10T05:12:15.719Z,9.93
2019-01-10T05:14:43.004Z,7.72
2019-01-10T05:17:10.231Z,14.65
2019-01-10T05:19:37.442Z,17.73
2019-01-10T05:22:04.660Z,9.73
2019-01-10T05:24:31.870Z,14.83
2019-01-10T05:26:59.107Z,14.60
2019-01-10T05:29:26.318Z,15.85
2019-01-10T05:31:53.531Z,9.98
2019-01-10T05:34:20.738Z,6.50
2019-01-10T05:36:47.968Z,12.90
2019-01-10T05:39:15.183Z,21.00
2019-01-10T05:41:42.401Z,12.20
2019-01-10T05:44:09.622Z,7.05
2019-01-10T05:46:37.175Z,14.03
2019-01-10T05:49:04.391Z,15.93
2019-01-10T05:51:31.603Z,13.18
2019-01-10T05:53:58.818Z,9.13
2019-01-10T05:56:26.030Z,11.93
2019-01-10T05:58:53.298Z,11.05
2019-01-10T06:01:20.514Z,16.60
2019-01-10T06:03:53.181Z,11.88
2019-01-10T06:06:17.107Z,12.43
2019-01-10T06:08:44.331Z,13.78
2019-01-10T06:11:11.551Z,9.03
2019-01-10T06:13:38.769Z,15.18
2019-01-10T06:16:05.978Z,8.83
2019-01-10T06:18:33.262Z,9.28
2019-01-10T06:21:00.537Z,7.25
2019-01-10T06:23:27.783Z,9.60
2019-01-10T06:25:54.974Z,11.35
2019-01-10T06:28:22.204Z,15.03
2019-01-10T06:30:49.410Z,8.85
2019-01-10T06:33:16.631Z,16.07
2019-01-10T06:35:43.847Z,11.60
2019-01-10T06:38:11.066Z,10.72
2019-01-10T06:40:38.287Z,12.82
2019-01-10T06:43:05.514Z,16.10
2019-01-10T06:45:32.726Z,9.68
2019-01-10T06:47:59.949Z,9.63
2019-01-10T06:50:27.161Z,6.80
2019-01-10T06:52:54.387Z,11.93
2019-01-10T06:55:21.598Z,15.93
2019-01-10T06:57:48.829Z,22.15
2019-01-10T07:00:17.202Z,11.88
2019-01-10T07:02:44.784Z,18.07
2019-01-10T07:05:12.015Z,22.35
2019-01-10T07:07:39.226Z,13.88
2019-01-10T07:10:07.999Z,10.65
2019-01-10T07:12:35.236Z,11.08
2019-01-10T07:15:02.502Z,10.15
2019-01-10T07:17:29.728Z,8.05
2019-01-10T07:19:56.950Z,12.73
2019-01-10T07:22:24.158Z,15.80
2019-01-10T07:24:51.456Z,11.15
2019-01-10T07:27:18.742Z,24.72
2019-01-10T07:29:47.595Z,13.75
2019-01-10T07:32:14.810Z,19.55
2019-01-10T07:34:42.036Z,15.70
2019-01-10T07:37:12.944Z,15.58
2019-01-10T07:39:38.872Z,13.98
2019-01-10T07:42:06.079Z,12.40
2019-01-10T07:44:33.306Z,13.18
2019-01-10T07:47:00.518Z,12.65
2019-01-10T07:49:27.745Z,19.55
2019-01-10T07:51:55.095Z,12.10
2019-01-10T07:54:22.329Z,13.85
2019-01-10T07:56:49.552Z,11.57
2019-01-10T07:59:16.787Z,19.23
2019-01-10T08:01:43.994Z,13.20
2019-01-10T08:04:11.220Z,13.22
2019-01-10T08:06:38.426Z,16.55
2019-01-10T08:09:07.330Z,7.87
2019-01-10T08:11:34.607Z,9.20
2019-01-10T08:14:01.830Z,12.68
2019-01-10T08:16:29.053Z,10.35
2019-01-10T08:18:56.265Z,10.08
2019-01-10T08:21:23.480Z,15.50
2019-01-10T08:23:50.700Z,12.73
2019-01-10T08:26:17.929Z,19.45
2019-01-10T08:28:45.143Z,19.85
2019-01-10T08:31:12.362Z,22.55
2019-01-10T08:33:39.579Z,27.45
2019-01-10T08:36:07.042Z,17.87
2019-01-10T08:38:34.254Z,23.73
2019-01-10T08:41:01.475Z,15.20
2019-01-10T08:43:28.681Z,22.60
2019-01-10T08:45:55.907Z,20.60
2019-01-10T08:48:23.110Z,15.65
2019-01-10T08:50:50.343Z,19.42
2019-01-10T08:53:17.550Z,24.45
2019-01-10T08:55:44.782Z,20.23
2019-01-10T08:58:12.000Z,14.10
2019-01-10T09:00:39.221Z,18.15
2019-01-10T09:03:06.442Z,10.15
2019-01-10T09:05:33.668Z,9.75
2019-01-10T09:08:00.878Z,22.73
2019-01-10T09:10:28.262Z,19.12
2019-01-10T09:12:55.462Z,12.35
2019-01-10T09:15:25.299Z,16.02
2019-01-10T09:17:51.718Z,10.68
2019-01-10T09:20:18.918Z,14.63
2019-01-10T09:22:46.137Z,13.50
2019-01-10T09:25:13.345Z,12.00
2019-01-10T09:27:40.567Z,10.00
2019-01-10T09:30:09.316Z,17.80
2019-01-10T09:32:36.539Z,14.35
2019-01-10T09:35:04.127Z,12.03
2019-01-10T09:37:31.346Z,15.60
2019-01-10T09:39:58.560Z,10.88
2019-01-10T09:42:25.774Z,11.38
2019-01-10T09:44:52.991Z,10.72
2019-01-10T09:47:20.211Z,7.20
2019-01-10T09:49:47.426Z,11.35
2019-01-10T09:52:14.646Z,10.63
2019-01-10T09:54:41.866Z,12.33
2019-01-10T09:57:09.090Z,13.15
2019-01-10T09:59:36.306Z,9.03
2019-01-10T10:02:03.599Z,12.98
2019-01-10T10:04:30.818Z,13.98
2019-01-10T10:06:58.043Z,24.00
2019-01-10T10:09:25.419Z,11.40
2019-01-10T10:11:52.963Z,10.45
2019-01-10T10:14:20.171Z,10.10
2019-01-10T10:16:47.395Z,13.18
2019-01-10T10:19:14.607Z,11.88
2019-01-10T10:21:41.831Z,12.40
2019-01-10T10:24:09.037Z,9.53
2019-01-10T10:26:36.258Z,14.47
2019-01-10T10:29:03.838Z,10.40
2019-01-10T10:31:31.063Z,26.77
2019-01-10T10:33:58.270Z,14.30
2019-01-10T10:36:25.498Z,13.22
2019-01-10T10:38:52.708Z,8.63
2019-01-10T10:41:19.932Z,11.80
2019-01-10T10:43:47.151Z,17.25
2019-01-10T10:46:14.372Z,14.25
2019-01-10T10:48:41.587Z,22.25
2019-01-10T10:51:08.799Z,10.55
2019-01-10T10:53:36.021Z,14.30
2019-01-10T10:56:03.294Z,13.75
2019-01-10T10:58:30.518Z,10.80
2019-01-10T11:00:57.737Z,17.80
2019-01-10T11:03:24.947Z,15.50
2019-01-10T11:05:52.174Z,10.10
2019-01-10T11:08:19.393Z,15.35
2019-01-10T11:10:46.605Z,16.57
2019-01-10T11:13:13.828Z,9.45
2019-01-10T11:15:42.788Z,10.80
2019-01-10T11:18:09.974Z,11.78
2019-01-10T11:20:37.195Z,15.83
2019-01-10T11:23:10.382Z,15.53
2019-01-10T11:25:33.360Z,11.35
2019-01-10T11:28:00.580Z,15.05
2019-01-10T11:30:27.794Z,11.83
2019-01-10T11:32:55.013Z,12.68
2019-01-10T11:35:22.221Z,13.38
2019-01-10T11:37:49.442Z,15.60
2019-01-10T11:40:17.831Z,26.82
2019-01-10T11:42:45.054Z,12.25
2019-01-10T11:45:13.734Z,11.93
2019-01-10T11:47:40.981Z,20.37
2019-01-10T11:50:09.846Z,13.65
2019-01-10T11:52:37.060Z,11.05
2019-01-10T11:55:05.547Z,11.03
2019-01-10T11:57:32.762Z,11.70
2019-01-10T11:59:59.978Z,11.88
2019-01-10T12:02:36.077Z,12.18
2019-01-10T12:04:56.151Z,11.65
2019-01-10T12:07:23.374Z,10.70
2019-01-10T12:09:50.590Z,13.30
2019-01-10T12:12:17.810Z,11.20
2019-01-10T12:14:45.023Z,18.15
2019-01-10T12:17:12.246Z,16.67
2019-01-10T12:19:39.466Z,10.95
2019-01-10T12:22:06.687Z,13.18
2019-01-10T12:24:33.902Z,10.18
2019-01-10T12:27:01.127Z,13.70
2019-01-10T12:29:36.101Z,25.00
2019-01-10T12:31:57.286Z,17.98
2019-01-10T12:34:24.507Z,19.92
2019-01-10T12:37:00.007Z,12.55
2019-01-10T12:39:20.658Z,14.20
2019-01-10T12:41:47.871Z,8.73
2019-01-10T12:44:15.097Z,11.45
2019-01-10T12:46:42.302Z,9.23
2019-01-10T12:49:11.399Z,10.60
2019-01-10T12:51:38.459Z,8.10
2019-01-10T12:54:05.677Z,9.43
2019-01-10T12:56:32.891Z,11.90
2019-01-10T12:59:00.118Z,10.88
2019-01-10T13:01:27.343Z,15.13
2019-01-10T13:03:54.573Z,9.60
2019-01-10T13:06:21.788Z,8.90
2019-01-10T13:08:49.371Z,12.05
2019-01-10T13:11:16.595Z,10.43
2019-01-10T13:13:44.639Z,18.48
2019-01-10T13:16:12.127Z,15.78
2019-01-10T13:18:39.334Z,12.07
2019-01-10T13:21:06.559Z,10.25
2019-01-10T13:23:33.779Z,7.72
2019-01-10T13:26:00.994Z,10.08
2019-01-10T13:28:28.215Z,8.25
2019-01-10T13:30:55.431Z,12.37
2019-01-10T13:33:22.656Z,24.95
2019-01-10T13:35:49.955Z,15.43
2019-01-10T13:38:17.169Z,10.03
2019-01-10T13:40:44.450Z,15.13
2019-01-10T13:43:11.709Z,12.37
2019-01-10T13:45:46.012Z,17.20
2019-01-10T13:48:08.426Z,18.10
2019-01-10T13:50:35.656Z,24.82
2019-01-10T13:53:02.866Z,35.78
2019-01-10T13:55:30.095Z,24.45
2019-01-10T13:57:57.378Z,31.02
2019-01-10T14:00:28.019Z,11.03
2019-01-10T14:02:55.298Z,10.72
2019-01-10T14:05:22.519Z,8.38
2019-01-10T14:07:49.822Z,13.13
2019-01-10T14:10:17.625Z,10.95
2019-01-10T14:12:45.209Z,7.92
2019-01-10T14:15:14.675Z,10.40
2019-01-10T14:17:41.882Z,13.28
2019-01-10T14:20:09.979Z,19.73
2019-01-10T14:22:37.192Z,8.38
2019-01-10T14:25:05.273Z,7.97
2019-01-10T14:27:32.560Z,14.15
2019-01-10T14:29:59.858Z,7.70
2019-01-10T14:32:27.076Z,11.22
2019-01-10T14:34:54.295Z,8.53
2019-01-10T14:37:21.843Z,10.43
2019-01-10T14:39:49.063Z,11.88
2019-01-10T14:42:16.279Z,12.98
2019-01-10T14:44:43.498Z,7.50
2019-01-10T14:47:10.714Z,8.23
2019-01-10T14:49:37.985Z,14.13
2019-01-10T14:52:05.251Z,9.60
2019-01-10T14:54:32.471Z,6.72
2019-01-10T14:56:59.688Z,9.10
2019-01-10T14:59:26.898Z,6.47
2019-01-10T15:01:54.118Z,15.72
2019-01-10T15:04:21.325Z,8.90
2019-01-10T15:06:48.542Z,8.43
2019-01-10T15:09:15.875Z,10.03
2019-01-10T15:11:43.135Z,6.45
2019-01-10T15:14:16.069Z,10.72
2019-01-10T15:16:39.282Z,9.70
2019-01-10T15:19:06.758Z,8.20
2019-01-10T15:21:33.976Z,9.28
2019-01-10T15:24:01.187Z,7.75
2019-01-10T15:26:28.413Z,6.78
2019-01-10T15:28:55.619Z,8.18
2019-01-10T15:31:22.843Z,8.33
2019-01-10T15:33:50.062Z,12.25
2019-01-10T15:36:17.290Z,15.53
2019-01-10T15:38:44.498Z,7.15
2019-01-10T15:41:11.722Z,8.35
2019-01-10T15:43:38.932Z,9.35
2019-01-10T15:46:06.146Z,7.72
2019-01-10T15:48:33.363Z,5.53
2019-01-10T15:51:00.586Z,9.73
2019-01-10T15:53:27.803Z,26.70
2019-01-10T15:55:55.026Z,24.32
2019-01-10T15:58:22.252Z,24.02
2019-01-10T16:00:49.475Z,26.05
2019-01-10T16:03:16.687Z,44.35
2019-01-10T16:05:43.916Z,40.52
2019-01-10T16:08:11.131Z,28.30
2019-01-10T16:10:38.365Z,17.10
2019-01-10T16:13:05.587Z,20.82
2019-01-10T16:15:32.811Z,12.35
2019-01-10T16:18:00.013Z,11.15
2019-01-10T16:20:27.235Z,5.67
2019-01-10T16:22:54.454Z,6.28
2019-01-10T16:25:21.942Z,12.98
2019-01-10T16:27:49.231Z,10.40
2019-01-10T16:30:23.538Z,9.58
2019-01-10T16:32:50.754Z,7.97
2019-01-10T16:35:17.958Z,6.80
2019-01-10T16:37:45.178Z,9.10
2019-01-10T16:40:13.779Z,6.78
2019-01-10T16:42:41.015Z,12.85
2019-01-10T16:45:09.758Z,4.55
2019-01-10T16:47:36.978Z,7.37
2019-01-10T16:50:05.736Z,8.80
2019-01-10T16:52:32.954Z,7.05
2019-01-10T16:55:00.169Z,9.55
2019-01-10T16:57:27.386Z,6.95
2019-01-10T16:59:54.613Z,7.37
2019-01-10T17:02:21.839Z,13.35
2019-01-10T17:04:49.055Z,11.75
2019-01-10T17:07:16.274Z,14.83
2019-01-10T17:09:43.483Z,8.68
2019-01-10T17:12:10.702Z,3.58
2019-01-10T17:14:37.906Z,8.03
2019-01-10T17:17:05.122Z,9.18
2019-01-10T17:19:32.330Z,7.12
2019-01-10T17:21:59.563Z,5.45
2019-01-10T17:24:26.774Z,4.17
2019-01-10T17:26:54.002Z,5.20
2019-01-10T17:29:21.214Z,3.25
2019-01-10T17:31:48.435Z,2.70
2019-01-10T17:34:15.739Z,3.87
2019-01-10T17:36:42.945Z,10.18
2019-01-10T17:39:10.158Z,6.80
2019-01-10T17:41:37.374Z,8.85
2019-01-10T17:44:04.651Z,14.58
2019-01-10T17:46:31.887Z,6.45
2019-01-10T17:48:59.111Z,13.38
2019-01-10T17:51:26.323Z,8.48
2019-01-10T17:53:53.614Z,12.28
2019-01-10T17:56:20.945Z,6.25
2019-01-10T17:58:48.226Z,6.03
2019-01-10T18:01:15.440Z,4.22
2019-01-10T18:03:42.645Z,5.97
2019-01-10T18:06:09.854Z,4.25
2019-01-10T18:08:37.077Z,6.03
2019-01-10T18:11:04.284Z,7.50
2019-01-10T18:13:31.498Z,8.08
2019-01-10T18:15:58.719Z,5.20
2019-01-10T18:18:25.950Z,8.18
2019-01-10T18:20:53.167Z,6.17
2019-01-10T18:23:20.387Z,5.75
2019-01-10T18:25:47.602Z,9.98
2019-01-10T18:28:14.825Z,3.20
2019-01-10T18:30:43.439Z,6.05
2019-01-10T18:33:10.834Z,5.78
2019-01-10T18:35:38.035Z,5.00
2019-01-10T18:38:05.255Z,7.30
2019-01-10T18:40:32.471Z,7.42
2019-01-10T18:42:59.694Z,5.87
2019-01-10T18:45:28.171Z,3.85
2019-01-10T18:47:57.373Z,6.28
2019-01-10T18:50:24.608Z,13.68
2019-01-10T18:52:51.894Z,13.35
2019-01-10T18:55:19.102Z,9.45
2019-01-10T18:57:46.322Z,6.58
2019-01-10T19:00:15.398Z,9.60
2019-01-10T19:02:42.639Z,10.45
2019-01-10T19:05:09.915Z,7.72
2019-01-10T19:07:37.129Z,8.93
2019-01-10T19:10:05.910Z,21.68
2019-01-10T19:12:33.129Z,5.08
2019-01-10T19:15:00.343Z,10.30
2019-01-10T19:17:27.560Z,8.85
2019-01-10T19:19:54.778Z,13.93
2019-01-10T19:22:23.310Z,13.20
2019-01-10T19:24:50.593Z,6.75
2019-01-10T19:27:17.803Z,13.88
2019-01-10T19:29:45.027Z,10.40
2019-01-10T19:32:12.252Z,13.83
2019-01-10T19:34:39.471Z,13.53
2019-01-10T19:37:06.687Z,10.20
2019-01-10T19:39:33.916Z,11.20
2019-01-10T19:42:01.114Z,9.08
2019-01-10T19:44:28.336Z,7.05
2019-01-10T19:46:55.543Z,9.13
2019-01-10T19:49:22.758Z,6.75
2019-01-10T19:51:49.966Z,4.17
2019-01-10T19:54:17.988Z,5.75
2019-01-10T19:56:45.374Z,7.65
2019-01-10T19:59:12.603Z,6.55
2019-01-10T20:01:39.810Z,8.85
2019-01-10T20:04:07.048Z,9.78
2019-01-10T20:06:34.255Z,9.10
2019-01-10T20:09:01.470Z,7.28
2019-01-10T20:11:28.678Z,9.85
2019-01-10T20:13:55.911Z,13.38
2019-01-10T20:16:23.114Z,8.08
2019-01-10T20:18:50.343Z,7.17
2019-01-10T20:21:17.551Z,5.42
2019-01-10T20:23:44.771Z,4.67
2019-01-10T20:26:11.975Z,9.60
2019-01-10T20:28:39.198Z,9.80
2019-01-10T20:31:06.403Z,5.47
2019-01-10T20:33:33.622Z,5.08
2019-01-10T20:36:00.831Z,4.72
2019-01-10T20:38:28.050Z,5.30
2019-01-10T20:40:55.262Z,4.10
2019-01-10T20:43:22.481Z,10.45
2019-01-10T20:45:49.696Z,7.60
2019-01-10T20:48:22.437Z,7.35
2019-01-10T20:50:45.846Z,6.47
2019-01-10T20:53:13.058Z,10.15
2019-01-10T20:55:40.270Z,8.45
2019-01-10T20:58:07.958Z,13.18
2019-01-10T21:00:35.238Z,8.15
2019-01-10T21:03:02.452Z,5.95
2019-01-10T21:05:29.744Z,11.03
2019-01-10T21:07:56.954Z,12.35
2019-01-10T21:10:24.255Z,12.00
2019-01-10T21:12:51.464Z,12.03
2019-01-10T21:15:22.389Z,13.88
2019-01-10T21:17:49.614Z,12.90
2019-01-10T21:20:16.831Z,10.30
2019-01-10T21:22:44.035Z,9.00
2019-01-10T21:25:11.726Z,10.23
2019-01-10T21:27:39.175Z,9.65
2019-01-10T21:30:10.734Z,15.90
2019-01-10T21:32:40.906Z,7.65
2019-01-10T21:35:07.367Z,10.13
2019-01-10T21:37:34.583Z,10.68
2019-01-10T21:40:01.798Z,11.95
2019-01-10T21:42:29.014Z,11.85
2019-01-10T21:44:56.243Z,9.63
2019-01-10T21:47:24.328Z,8.20
2019-01-10T21:49:51.742Z,8.83
2019-01-10T21:52:18.958Z,6.53
2019-01-10T21:54:46.186Z,11.88
2019-01-10T21:57:13.403Z,9.33
2019-01-10T21:59:40.622Z,10.63
2019-01-10T22:02:07.903Z,12.47
2019-01-10T22:04:35.122Z,16.12
2019-01-10T22:07:02.331Z,9.25
2019-01-10T22:09:30.366Z,9.33
2019-01-10T22:11:57.845Z,12.23
2019-01-10T22:14:25.049Z,13.32
2019-01-10T22:16:52.283Z,11.28
2019-01-10T22:19:19.503Z,11.15
2019-01-10T22:21:46.723Z,8.55
2019-01-10T22:24:13.936Z,5.10
2019-01-10T22:26:41.150Z,9.58
2019-01-10T22:29:08.358Z,7.17
2019-01-10T22:31:35.579Z,9.33
2019-01-10T22:34:02.787Z,9.75
2019-01-10T22:36:30.010Z,11.20
2019-01-10T22:38:57.222Z,9.45
2019-01-10T22:41:24.443Z,7.90
2019-01-10T22:43:51.645Z,7.05
2019-01-10T22:46:18.865Z,7.25
2019-01-10T22:48:47.926Z,6.62
2019-01-10T22:51:15.043Z,10.88
2019-01-10T22:53:42.253Z,4.75
2019-01-10T22:56:09.466Z,6.28
2019-01-10T22:58:36.704Z,11.78
2019-01-10T23:01:07.001Z,10.32
2019-01-10T23:03:35.250Z,5.87
2019-01-10T23:06:02.702Z,12.53
2019-01-10T23:08:30.032Z,8.78
2019-01-10T23:10:57.251Z,6.70
2019-01-10T23:13:24.458Z,5.17
2019-01-10T23:15:51.674Z,5.08
2019-01-10T23:18:19.118Z,10.38
2019-01-10T23:20:49.511Z,8.30
2019-01-10T23:23:16.793Z,5.62
2019-01-10T23:25:47.182Z,7.20
2019-01-10T23:28:14.460Z,5.50
2019-01-10T23:30:46.130Z,6.97
2019-01-10T23:33:13.371Z,7.10
2019-01-10T23:35:40.601Z,8.20
2019-01-10T23:38:09.008Z,9.63
2019-01-10T23:40:36.510Z,9.90
2019-01-10T23:43:03.797Z,13.03
2019-01-10T23:45:31.014Z,7.62
2019-01-10T23:47:58.240Z,8.13
2019-01-10T23:50:25.457Z,9.33
2019-01-10T23:52:52.682Z,7.17
2019-01-10T23:55:19.890Z,7.37
2019-01-10T23:57:47.126Z,10.25
